createdAt,value
2023-05-09T00:00:48.599Z,1.33
2023-05-09T00:01:50.574Z,1.80
2023-05-09T00:02:54.323Z,1.60
2023-05-09T00:03:56.465Z,1.80
2023-05-09T00:04:58.360Z,1.70
2023-05-09T00:06:00.551Z,1.67
2023-05-09T00:07:02.668Z,1.60
2023-05-09T00:08:05.357Z,1.52
2023-05-09T00:09:07.281Z,1.80
2023-05-09T00:10:09.575Z,1.60
2023-05-09T00:11:11.603Z,1.63
2023-05-09T00:12:13.593Z,1.50
2023-05-09T00:13:15.449Z,1.30
2023-05-09T00:14:18.728Z,2.00
2023-05-09T00:15:20.668Z,1.65
2023-05-09T00:16:24.270Z,1.42
2023-05-09T00:17:26.840Z,1.70
2023-05-09T00:18:31.204Z,1.35
2023-05-09T00:19:33.752Z,1.92
2023-05-09T00:20:36.146Z,1.48
2023-05-09T00:21:38.050Z,1.52
2023-05-09T00:22:41.099Z,1.88
2023-05-09T00:23:43.261Z,1.75
2023-05-09T00:24:45.234Z,1.40
2023-05-09T00:25:47.049Z,1.50
2023-05-09T00:26:49.038Z,1.85
2023-05-09T00:27:50.999Z,1.30
2023-05-09T00:28:53.110Z,1.48
2023-05-09T00:29:55.148Z,1.50
2023-05-09T00:30:57.401Z,1.60
2023-05-09T00:31:59.324Z,1.48
2023-05-09T00:33:01.345Z,1.80
2023-05-09T00:34:03.293Z,1.42
2023-05-09T00:35:05.872Z,1.58
2023-05-09T00:36:08.068Z,1.80
2023-05-09T00:37:10.136Z,1.27
2023-05-09T00:38:12.964Z,1.27
2023-05-09T00:39:14.798Z,1.30
2023-05-09T00:40:16.695Z,1.63
2023-05-09T00:41:18.534Z,1.67
2023-05-09T00:42:20.432Z,1.55
2023-05-09T00:43:22.382Z,1.30
2023-05-09T00:44:24.673Z,1.73
2023-05-09T00:45:26.844Z,1.42
2023-05-09T00:46:28.957Z,1.30
2023-05-09T00:47:31.228Z,1.65
2023-05-09T00:48:33.093Z,1.33
2023-05-09T00:49:35.389Z,1.48
2023-05-09T00:50:37.795Z,1.50
2023-05-09T00:51:41.625Z,1.67
2023-05-09T00:52:44.056Z,1.50
2023-05-09T00:53:46.599Z,1.30
2023-05-09T00:54:50.047Z,1.30
2023-05-09T00:55:52.616Z,1.25
2023-05-09T00:56:54.547Z,1.60
2023-05-09T00:57:56.495Z,1.63
2023-05-09T00:58:58.946Z,1.48
2023-05-09T01:00:01.891Z,1.40
2023-05-09T01:01:04.652Z,1.50
2023-05-09T01:02:06.574Z,1.40
2023-05-09T01:03:09.201Z,1.52
2023-05-09T01:04:14.000Z,1.70
2023-05-09T01:05:16.548Z,1.40
2023-05-09T01:06:30.123Z,1.63
2023-05-09T01:08:13.365Z,1.55
2023-05-09T01:09:42.742Z,1.48
2023-05-09T01:11:34.402Z,1.38
2023-05-09T01:12:51.361Z,1.35
2023-05-09T01:14:14.669Z,1.40
2023-05-09T01:15:31.499Z,1.30
2023-05-09T01:16:46.026Z,1.40
2023-05-09T01:17:59.841Z,1.27
2023-05-09T01:19:14.709Z,1.30
2023-05-09T01:20:22.619Z,1.33
2023-05-09T01:21:29.345Z,1.40
2023-05-09T01:22:36.714Z,1.40
2023-05-09T01:23:44.346Z,1.38
2023-05-09T01:25:14.425Z,1.50
2023-05-09T01:27:26.803Z,1.80
2023-05-09T01:28:44.693Z,1.20
2023-05-09T01:29:51.647Z,1.30
2023-05-09T01:30:55.613Z,1.50
2023-05-09T01:32:00.052Z,1.42
2023-05-09T01:33:08.782Z,1.30
2023-05-09T01:34:15.304Z,1.50
2023-05-09T01:35:20.070Z,1.30
2023-05-09T01:36:23.367Z,1.40
2023-05-09T01:37:39.653Z,1.33
2023-05-09T01:38:44.654Z,1.40
2023-05-09T01:39:50.449Z,1.90
2023-05-09T01:40:55.448Z,1.10
2023-05-09T01:42:02.393Z,1.55
2023-05-09T01:43:09.960Z,1.58
2023-05-09T01:44:15.344Z,1.40
2023-05-09T01:45:19.994Z,1.52
2023-05-09T01:46:22.947Z,1.60
2023-05-09T01:47:27.053Z,1.33
2023-05-09T01:48:31.800Z,1.20
2023-05-09T01:49:37.723Z,1.40
2023-05-09T01:50:43.527Z,1.40
2023-05-09T01:51:47.954Z,1.40
2023-05-09T01:52:55.012Z,1.33
2023-05-09T01:53:58.998Z,1.42
2023-05-09T01:55:02.479Z,1.50
2023-05-09T01:56:07.861Z,1.23
2023-05-09T01:57:12.012Z,1.33
2023-05-09T01:58:15.936Z,1.30
2023-05-09T01:59:19.735Z,1.15
2023-05-09T02:00:24.020Z,1.30
2023-05-09T02:01:26.838Z,1.30
2023-05-09T02:02:29.501Z,1.65
2023-05-09T02:03:34.090Z,1.25
2023-05-09T02:04:37.130Z,1.50
2023-05-09T02:05:40.316Z,1.50
2023-05-09T02:06:45.025Z,1.70
2023-05-09T02:07:48.849Z,1.50
2023-05-09T02:08:51.660Z,1.10
2023-05-09T02:09:58.203Z,1.42
2023-05-09T02:11:00.323Z,1.27
2023-05-09T02:12:04.457Z,1.30
2023-05-09T02:13:07.479Z,1.15
2023-05-09T02:14:09.974Z,1.35
2023-05-09T02:15:12.287Z,1.33
2023-05-09T02:16:15.404Z,1.17
2023-05-09T02:17:17.904Z,1.17
2023-05-09T02:18:19.771Z,1.50
2023-05-09T02:19:21.654Z,1.27
2023-05-09T02:20:23.786Z,1.70
2023-05-09T02:21:26.781Z,1.00
2023-05-09T02:22:30.493Z,1.40
2023-05-09T02:23:32.437Z,1.60
2023-05-09T02:24:34.512Z,1.25
2023-05-09T02:25:38.564Z,1.45
2023-05-09T02:26:41.490Z,1.38
2023-05-09T02:27:47.466Z,1.50
2023-05-09T02:28:50.937Z,1.30
2023-05-09T02:29:57.635Z,1.20
2023-05-09T02:31:06.445Z,1.30
2023-05-09T02:32:12.587Z,1.38
2023-05-09T02:33:14.628Z,1.17
2023-05-09T02:34:17.720Z,1.40
2023-05-09T02:35:21.865Z,1.20
2023-05-09T02:36:24.496Z,1.38
2023-05-09T02:37:27.840Z,1.60
2023-05-09T02:38:29.665Z,1.20
2023-05-09T02:39:32.374Z,1.25
2023-05-09T02:40:34.657Z,1.50
2023-05-09T02:41:36.765Z,1.20
2023-05-09T02:42:38.741Z,0.98
2023-05-09T02:43:40.674Z,1.42
2023-05-09T02:44:42.549Z,1.20
2023-05-09T02:45:44.690Z,1.40
2023-05-09T02:46:46.662Z,1.20
2023-05-09T02:47:48.596Z,1.55
2023-05-09T02:48:51.407Z,1.40
2023-05-09T02:49:53.240Z,1.48
2023-05-09T02:50:55.207Z,1.10
2023-05-09T02:51:57.215Z,1.35
2023-05-09T02:52:59.146Z,1.30
2023-05-09T02:54:00.893Z,1.40
2023-05-09T02:55:04.127Z,1.20
2023-05-09T02:56:06.121Z,1.17
2023-05-09T02:57:08.044Z,1.30
2023-05-09T02:58:14.723Z,1.20
2023-05-09T02:59:19.972Z,1.20
2023-05-09T03:00:22.282Z,1.40
2023-05-09T03:01:24.223Z,1.23
2023-05-09T03:02:26.244Z,1.23
2023-05-09T03:03:28.303Z,1.47
2023-05-09T03:04:30.468Z,1.42
2023-05-09T03:05:32.349Z,1.42
2023-05-09T03:06:34.269Z,1.23
2023-05-09T03:07:36.201Z,1.30
2023-05-09T03:08:38.099Z,1.33
2023-05-09T03:09:41.188Z,1.40
2023-05-09T03:10:43.246Z,1.40
2023-05-09T03:11:45.082Z,1.20
2023-05-09T03:12:47.773Z,1.40
2023-05-09T03:13:49.731Z,1.20
2023-05-09T03:14:51.610Z,1.27
2023-05-09T03:15:53.588Z,1.13
2023-05-09T03:16:55.766Z,1.10
2023-05-09T03:17:58.021Z,1.10
2023-05-09T03:18:59.963Z,1.20
2023-05-09T03:20:04.304Z,0.95
2023-05-09T03:21:06.554Z,1.15
2023-05-09T03:22:08.549Z,1.40
2023-05-09T03:23:10.600Z,1.50
2023-05-09T03:24:12.503Z,1.27
2023-05-09T03:25:14.972Z,1.30
2023-05-09T03:26:16.970Z,1.40
2023-05-09T03:27:20.034Z,1.05
2023-05-09T03:28:21.957Z,1.10
2023-05-09T03:29:23.986Z,1.17
2023-05-09T03:30:27.387Z,1.15
2023-05-09T03:31:29.358Z,1.23
2023-05-09T03:32:31.371Z,1.38
2023-05-09T03:33:33.209Z,1.13
2023-05-09T03:34:35.582Z,0.97
2023-05-09T03:35:37.452Z,1.27
2023-05-09T03:36:39.359Z,1.42
2023-05-09T03:37:41.272Z,1.40
2023-05-09T03:38:43.564Z,1.30
2023-05-09T03:39:45.506Z,1.27
2023-05-09T03:40:47.496Z,1.20
2023-05-09T03:41:49.460Z,1.23
2023-05-09T03:42:51.295Z,0.90
2023-05-09T03:43:53.186Z,1.40
2023-05-09T03:44:55.314Z,1.30
2023-05-09T03:45:57.209Z,1.10
2023-05-09T03:46:59.229Z,1.27
2023-05-09T03:48:01.235Z,1.33
2023-05-09T03:49:04.415Z,1.33
2023-05-09T03:50:07.415Z,1.30
2023-05-09T03:51:09.363Z,1.38
2023-05-09T03:52:11.227Z,1.05
2023-05-09T03:53:13.175Z,1.07
2023-05-09T03:54:15.330Z,1.23
2023-05-09T03:55:17.198Z,1.27
2023-05-09T03:56:19.164Z,1.10
2023-05-09T03:57:21.284Z,1.20
2023-05-09T03:58:23.128Z,1.30
2023-05-09T03:59:25.315Z,1.25
2023-05-09T04:00:27.325Z,1.13
2023-05-09T04:01:29.247Z,1.20
2023-05-09T04:02:31.614Z,1.25
2023-05-09T04:03:33.864Z,1.20
2023-05-09T04:04:36.080Z,1.17
2023-05-09T04:05:38.196Z,1.10
2023-05-09T04:06:40.154Z,1.23
2023-05-09T04:07:42.661Z,1.20
2023-05-09T04:08:45.399Z,1.20
2023-05-09T04:09:47.454Z,1.10
2023-05-09T04:10:50.946Z,1.08
2023-05-09T04:11:52.866Z,1.00
2023-05-09T04:12:55.034Z,1.30
2023-05-09T04:13:57.052Z,1.20
2023-05-09T04:14:58.992Z,1.25
2023-05-09T04:16:01.598Z,1.30
2023-05-09T04:17:03.706Z,1.20
2023-05-09T04:18:06.270Z,1.10
2023-05-09T04:19:08.275Z,1.23
2023-05-09T04:20:11.649Z,1.25
2023-05-09T04:21:13.631Z,1.00
2023-05-09T04:22:15.508Z,1.00
2023-05-09T04:23:17.382Z,1.13
2023-05-09T04:24:19.531Z,1.23
2023-05-09T04:25:21.420Z,1.08
2023-05-09T04:26:24.770Z,1.27
2023-05-09T04:27:28.294Z,0.98
2023-05-09T04:28:30.314Z,1.20
2023-05-09T04:29:32.410Z,1.20
2023-05-09T04:30:34.329Z,1.40
2023-05-09T04:31:36.261Z,1.37
2023-05-09T04:32:38.945Z,1.10
2023-05-09T04:33:41.213Z,1.00
2023-05-09T04:34:43.171Z,1.20
2023-05-09T04:35:45.026Z,1.33
2023-05-09T04:36:46.917Z,0.95
2023-05-09T04:37:48.985Z,1.27
2023-05-09T04:38:51.129Z,1.40
2023-05-09T04:39:54.289Z,1.23
2023-05-09T04:40:56.188Z,1.17
2023-05-09T04:41:58.090Z,1.10
2023-05-09T04:43:00.025Z,0.98
2023-05-09T04:44:02.025Z,1.10
2023-05-09T04:45:04.866Z,1.30
2023-05-09T04:46:07.790Z,1.25
2023-05-09T04:47:09.688Z,1.08
2023-05-09T04:48:11.907Z,1.20
2023-05-09T04:49:13.847Z,1.17
2023-05-09T04:50:16.686Z,1.10
2023-05-09T04:51:19.291Z,1.00
2023-05-09T04:52:21.756Z,1.20
2023-05-09T04:53:23.598Z,1.10
2023-05-09T04:54:26.141Z,1.20
2023-05-09T04:55:28.091Z,1.20
2023-05-09T04:56:30.149Z,1.20
2023-05-09T04:57:32.098Z,1.30
2023-05-09T04:58:38.200Z,1.00
2023-05-09T04:59:40.134Z,1.33
2023-05-09T05:00:42.171Z,1.33
2023-05-09T05:01:44.335Z,0.97
2023-05-09T05:02:46.711Z,1.30
2023-05-09T05:03:48.561Z,1.10
2023-05-09T05:04:50.572Z,1.20
2023-05-09T05:05:52.561Z,1.30
2023-05-09T05:06:54.985Z,1.30
2023-05-09T05:07:56.948Z,1.23
2023-05-09T05:08:58.777Z,1.08
2023-05-09T05:10:00.736Z,1.00
2023-05-09T05:11:02.624Z,1.30
2023-05-09T05:13:09.252Z,1.30
2023-05-09T05:14:11.288Z,1.40
2023-05-09T05:15:13.671Z,1.08
2023-05-09T05:16:15.751Z,1.17
2023-05-09T05:17:18.435Z,1.07
2023-05-09T05:18:20.365Z,1.15
2023-05-09T05:19:22.236Z,1.20
2023-05-09T05:20:24.099Z,1.20
2023-05-09T05:21:25.934Z,1.00
2023-05-09T05:22:28.015Z,0.90
2023-05-09T05:23:30.068Z,1.10
2023-05-09T05:24:31.945Z,1.13
2023-05-09T05:25:33.957Z,1.10
2023-05-09T05:26:35.901Z,1.27
2023-05-09T05:27:37.802Z,1.10
2023-05-09T05:28:39.712Z,1.10
2023-05-09T05:29:41.666Z,1.08
2023-05-09T05:30:43.645Z,1.20
2023-05-09T05:31:45.552Z,1.27
2023-05-09T05:32:47.863Z,1.20
2023-05-09T05:33:49.825Z,1.23
2023-05-09T05:34:51.966Z,1.20
2023-05-09T05:35:53.986Z,1.10
2023-05-09T05:36:55.931Z,1.27
2023-05-09T05:37:57.987Z,1.30
2023-05-09T05:38:59.890Z,1.10
2023-05-09T05:40:01.817Z,1.10
2023-05-09T05:41:03.733Z,1.30
2023-05-09T05:42:05.718Z,1.40
2023-05-09T05:43:07.595Z,1.20
2023-05-09T05:44:09.497Z,1.30
2023-05-09T05:45:11.704Z,1.30
2023-05-09T05:46:13.570Z,1.23
2023-05-09T05:47:15.458Z,1.10
2023-05-09T05:48:17.676Z,1.13
2023-05-09T05:49:19.630Z,1.17
2023-05-09T05:50:21.471Z,1.20
2023-05-09T05:51:23.332Z,0.90
2023-05-09T05:52:26.357Z,1.20
2023-05-09T05:53:29.832Z,1.25
2023-05-09T05:54:32.680Z,1.38
2023-05-09T05:55:34.535Z,1.10
2023-05-09T05:56:36.507Z,1.02
2023-05-09T05:57:39.134Z,1.33
2023-05-09T05:58:41.156Z,1.20
2023-05-09T05:59:43.023Z,1.00
2023-05-09T06:00:44.931Z,1.23
2023-05-09T06:01:46.845Z,1.35
2023-05-09T06:02:48.999Z,1.30
2023-05-09T06:03:54.999Z,1.25
2023-05-09T06:04:56.909Z,1.40
2023-05-09T06:05:59.167Z,1.35
2023-05-09T06:07:01.086Z,1.23
2023-05-09T06:08:03.138Z,1.15
2023-05-09T06:09:05.120Z,1.08
2023-05-09T06:10:08.452Z,1.17
2023-05-09T06:11:10.480Z,1.10
2023-05-09T06:12:16.608Z,1.60
2023-05-09T06:13:18.598Z,1.10
2023-05-09T06:14:20.626Z,1.30
2023-05-09T06:15:22.834Z,1.30
2023-05-09T06:16:24.790Z,1.30
2023-05-09T06:17:27.142Z,1.00
2023-05-09T06:18:29.526Z,1.60
2023-05-09T06:19:31.463Z,1.37
2023-05-09T06:20:33.422Z,1.20
2023-05-09T06:21:35.197Z,1.15
2023-05-09T06:22:37.241Z,1.20
2023-05-09T06:23:44.667Z,1.30
2023-05-09T06:24:52.687Z,1.90
2023-05-09T06:25:54.572Z,1.90
2023-05-09T06:26:56.536Z,1.80
2023-05-09T06:27:58.425Z,1.80
2023-05-09T06:29:00.303Z,1.87
2023-05-09T06:30:08.341Z,1.60
2023-05-09T06:31:16.904Z,1.77
2023-05-09T06:32:19.463Z,1.80
2023-05-09T06:33:21.416Z,1.83
2023-05-09T06:34:23.303Z,2.15
2023-05-09T06:35:25.310Z,2.00
2023-05-09T06:36:27.314Z,1.50
2023-05-09T06:37:34.243Z,1.80
2023-05-09T06:38:36.293Z,2.40
2023-05-09T06:39:38.204Z,1.60
2023-05-09T06:40:40.030Z,1.70
2023-05-09T06:41:42.064Z,1.85
2023-05-09T06:42:44.635Z,1.88
2023-05-09T06:43:46.646Z,2.30
2023-05-09T06:44:48.625Z,2.03
2023-05-09T06:45:50.764Z,1.90
2023-05-09T06:46:52.776Z,1.80
2023-05-09T06:47:54.763Z,2.03
2023-05-09T06:48:56.662Z,2.22
2023-05-09T06:49:58.532Z,1.77
2023-05-09T06:51:00.640Z,1.92
2023-05-09T06:52:02.559Z,2.08
2023-05-09T06:53:04.399Z,2.63
2023-05-09T06:54:06.306Z,1.73
2023-05-09T06:55:09.441Z,2.00
2023-05-09T06:56:12.036Z,2.42
2023-05-09T06:57:13.862Z,1.80
2023-05-09T06:58:15.839Z,2.30
2023-05-09T06:59:18.098Z,2.30
2023-05-09T07:00:20.610Z,2.00
2023-05-09T07:01:22.739Z,1.60
2023-05-09T07:02:24.683Z,2.70
2023-05-09T07:03:26.862Z,1.85
2023-05-09T07:04:28.734Z,1.67
2023-05-09T07:05:30.670Z,1.70
2023-05-09T07:06:33.031Z,1.90
2023-05-09T07:07:34.874Z,2.00
2023-05-09T07:08:36.759Z,1.83
2023-05-09T07:09:38.662Z,2.10
2023-05-09T07:10:40.700Z,1.83
2023-05-09T07:11:42.608Z,1.80
2023-05-09T07:12:44.441Z,2.05
2023-05-09T07:13:46.384Z,1.90
2023-05-09T07:14:48.291Z,2.63
2023-05-09T07:15:50.453Z,2.07
2023-05-09T07:16:52.521Z,3.47
2023-05-09T07:17:54.601Z,1.65
2023-05-09T07:18:56.604Z,1.63
2023-05-09T07:19:58.440Z,1.53
2023-05-09T07:21:00.445Z,1.85
2023-05-09T07:22:02.312Z,2.33
2023-05-09T07:23:06.154Z,1.60
2023-05-09T07:24:08.120Z,2.10
2023-05-09T07:25:10.409Z,2.08
2023-05-09T07:26:12.272Z,2.25
2023-05-09T07:27:14.305Z,1.85
2023-05-09T07:28:16.265Z,1.67
2023-05-09T07:29:20.201Z,1.92
2023-05-09T07:30:22.594Z,2.10
2023-05-09T07:31:24.603Z,2.00
2023-05-09T07:32:28.851Z,1.80
2023-05-09T07:33:31.101Z,1.52
2023-05-09T07:34:33.008Z,1.60
2023-05-09T07:35:34.938Z,1.80
2023-05-09T07:37:40.688Z,1.40
2023-05-09T07:38:42.553Z,1.50
2023-05-09T07:39:44.573Z,1.67
2023-05-09T07:40:46.748Z,1.70
2023-05-09T07:41:48.934Z,1.70
2023-05-09T07:42:51.638Z,1.73
2023-05-09T07:43:53.472Z,1.42
2023-05-09T07:44:55.434Z,1.70
2023-05-09T07:45:57.654Z,1.77
2023-05-09T07:47:01.186Z,1.43
2023-05-09T07:48:03.236Z,1.48
2023-05-09T07:49:05.156Z,1.47
2023-05-09T07:50:07.861Z,1.50
2023-05-09T07:51:09.728Z,2.05
2023-05-09T07:52:11.918Z,1.73
2023-05-09T07:53:13.841Z,1.70
2023-05-09T07:54:15.719Z,1.63
2023-05-09T07:55:17.998Z,1.90
2023-05-09T07:56:20.087Z,1.77
2023-05-09T07:57:22.803Z,1.90
2023-05-09T07:58:24.632Z,1.50
2023-05-09T07:59:26.647Z,1.50
2023-05-09T08:00:28.496Z,1.55
2023-05-09T08:01:30.686Z,1.40
2023-05-09T08:02:33.033Z,1.98
2023-05-09T08:03:35.175Z,1.85
2023-05-09T08:04:39.088Z,1.60
2023-05-09T08:05:41.179Z,1.67
2023-05-09T08:06:43.135Z,1.40
2023-05-09T08:07:45.355Z,1.70
2023-05-09T08:08:47.606Z,1.35
2023-05-09T08:09:49.692Z,1.40
2023-05-09T08:10:51.675Z,1.95
2023-05-09T08:11:53.839Z,1.55
2023-05-09T08:12:55.751Z,1.55
2023-05-09T08:13:57.673Z,1.25
2023-05-09T08:14:59.810Z,1.40
2023-05-09T08:16:02.228Z,1.60
2023-05-09T08:17:04.059Z,1.85
2023-05-09T08:18:06.427Z,1.70
2023-05-09T08:19:08.375Z,1.40
2023-05-09T08:20:11.474Z,1.33
2023-05-09T08:21:13.505Z,1.60
2023-05-09T08:22:19.686Z,1.38
2023-05-09T08:23:21.692Z,2.15
2023-05-09T08:24:23.664Z,1.55
2023-05-09T08:25:25.715Z,1.40
2023-05-09T08:26:27.906Z,1.60
2023-05-09T08:27:29.804Z,1.40
2023-05-09T08:28:31.754Z,1.50
2023-05-09T08:29:33.565Z,1.40
2023-05-09T08:30:35.824Z,1.48
2023-05-09T08:31:37.922Z,1.45
2023-05-09T08:32:40.105Z,1.70
2023-05-09T08:33:42.171Z,2.15
2023-05-09T08:34:44.044Z,2.60
2023-05-09T08:35:50.744Z,2.83
2023-05-09T08:36:53.293Z,1.88
2023-05-09T08:37:55.195Z,2.17
2023-05-09T08:38:57.068Z,2.30
2023-05-09T08:39:58.964Z,2.13
2023-05-09T08:41:01.929Z,3.50
2023-05-09T08:42:04.138Z,5.05
2023-05-09T08:43:08.578Z,4.60
2023-05-09T08:44:11.050Z,3.95
2023-05-09T08:45:15.126Z,3.95
2023-05-09T08:46:21.998Z,4.35
2023-05-09T08:47:25.728Z,4.95
2023-05-09T08:48:29.166Z,5.33
2023-05-09T08:49:31.305Z,4.38
2023-05-09T08:50:35.537Z,4.97
2023-05-09T08:51:39.788Z,4.47
2023-05-09T08:52:42.570Z,4.25
2023-05-09T08:53:44.823Z,4.88
2023-05-09T08:54:47.214Z,5.15
2023-05-09T08:55:53.304Z,4.07
2023-05-09T08:56:55.529Z,4.57
2023-05-09T08:57:58.902Z,4.53
2023-05-09T08:59:01.084Z,4.75
2023-05-09T09:00:06.493Z,4.30
2023-05-09T09:01:09.998Z,4.30
2023-05-09T09:02:14.906Z,6.10
2023-05-09T09:03:18.399Z,5.20
2023-05-09T09:04:20.548Z,5.20
2023-05-09T09:05:39.410Z,5.25
2023-05-09T09:06:43.780Z,5.25
2023-05-09T09:07:46.755Z,4.57
2023-05-09T09:08:50.467Z,4.97
2023-05-09T09:09:54.844Z,4.53
2023-05-09T09:10:56.900Z,4.68
2023-05-09T09:11:59.316Z,4.70
2023-05-09T09:13:04.946Z,4.43
2023-05-09T09:14:22.880Z,3.97
2023-05-09T09:15:30.429Z,3.85
2023-05-09T09:16:35.756Z,4.20
2023-05-09T09:17:42.980Z,4.30
2023-05-09T09:18:46.530Z,4.07
2023-05-09T09:19:53.973Z,3.90
2023-05-09T09:21:11.754Z,4.25
2023-05-09T09:22:18.367Z,3.63
2023-05-09T09:23:25.911Z,3.95
2023-05-09T09:24:28.636Z,4.07
2023-05-09T09:25:30.610Z,3.83
2023-05-09T09:26:32.443Z,3.85
2023-05-09T09:27:35.604Z,4.95
2023-05-09T09:28:37.915Z,4.10
2023-05-09T09:29:39.892Z,4.32
2023-05-09T09:30:48.501Z,3.70
2023-05-09T09:31:57.153Z,3.92
2023-05-09T09:33:00.447Z,3.97
2023-05-09T09:34:03.511Z,3.58
2023-05-09T09:35:11.092Z,3.75
2023-05-09T09:36:13.796Z,3.70
2023-05-09T09:37:23.324Z,3.45
2023-05-09T09:38:26.746Z,3.92
2023-05-09T09:39:28.541Z,3.33
2023-05-09T09:40:30.413Z,5.07
2023-05-09T09:41:39.817Z,3.20
2023-05-09T09:42:46.823Z,3.90
2023-05-09T09:43:48.645Z,4.63
2023-05-09T09:45:02.535Z,4.53
2023-05-09T09:46:06.522Z,4.07
2023-05-09T09:47:11.197Z,3.88
2023-05-09T09:48:13.165Z,3.63
2023-05-09T09:49:18.242Z,3.47
2023-05-09T09:50:23.497Z,3.85
2023-05-09T09:51:29.101Z,3.90
2023-05-09T09:52:30.935Z,4.32
2023-05-09T09:53:43.279Z,3.63
2023-05-09T09:54:45.336Z,3.80
2023-05-09T09:55:52.194Z,4.20
2023-05-09T09:56:55.270Z,3.55
2023-05-09T09:57:57.303Z,3.17
2023-05-09T09:59:15.625Z,3.95
2023-05-09T10:00:24.758Z,3.70
2023-05-09T10:01:26.851Z,3.88
2023-05-09T10:02:29.107Z,3.35
2023-05-09T10:03:41.532Z,3.85
2023-05-09T10:04:44.394Z,3.78
2023-05-09T10:05:46.914Z,3.90
2023-05-09T10:07:01.033Z,3.78
2023-05-09T10:08:05.098Z,3.63
2023-05-09T10:09:06.994Z,3.35
2023-05-09T10:10:09.726Z,3.75
2023-05-09T10:11:12.007Z,4.20
2023-05-09T10:12:18.094Z,3.15
2023-05-09T10:13:21.471Z,3.58
2023-05-09T10:14:26.611Z,3.22
2023-05-09T10:15:41.414Z,3.50
2023-05-09T10:16:56.173Z,2.85
2023-05-09T10:18:01.684Z,2.95
2023-05-09T10:19:05.472Z,3.20
2023-05-09T10:20:09.988Z,3.35
2023-05-09T10:21:15.831Z,3.20
2023-05-09T10:22:19.599Z,3.28
2023-05-09T10:23:24.025Z,3.28
2023-05-09T10:24:47.038Z,3.13
2023-05-09T10:26:09.008Z,3.10
2023-05-09T10:27:13.717Z,4.78
2023-05-09T10:28:21.248Z,3.08
2023-05-09T10:29:27.480Z,2.97
2023-05-09T10:30:40.052Z,5.03
2023-05-09T10:31:45.055Z,3.20
2023-05-09T10:33:08.574Z,2.65
2023-05-09T10:34:13.081Z,3.63
2023-05-09T10:35:18.288Z,3.03
2023-05-09T10:36:23.755Z,3.38
2023-05-09T10:37:26.627Z,3.88
2023-05-09T10:38:30.735Z,3.13
2023-05-09T10:39:33.192Z,3.30
2023-05-09T10:40:35.648Z,3.22
2023-05-09T10:41:39.943Z,3.00
2023-05-09T10:42:44.125Z,2.90
2023-05-09T10:43:46.166Z,3.10
2023-05-09T10:44:48.260Z,4.25
2023-05-09T10:45:51.774Z,2.97
2023-05-09T10:46:54.543Z,3.03
2023-05-09T10:47:58.170Z,2.95
2023-05-09T10:49:01.522Z,2.50
2023-05-09T10:50:04.629Z,5.28
2023-05-09T10:51:07.987Z,2.60
2023-05-09T10:52:09.841Z,2.63
2023-05-09T10:53:14.132Z,2.70
2023-05-09T10:54:33.386Z,6.28
2023-05-09T10:55:47.560Z,2.90
2023-05-09T10:56:49.507Z,2.90
2023-05-09T10:57:55.180Z,4.20
2023-05-09T10:58:57.959Z,2.72
2023-05-09T11:00:00.524Z,3.03
2023-05-09T11:01:05.080Z,2.60
2023-05-09T11:02:19.069Z,2.65
2023-05-09T11:03:21.550Z,2.63
2023-05-09T11:04:23.451Z,2.50
2023-05-09T11:05:25.463Z,2.63
2023-05-09T11:06:55.117Z,2.75
2023-05-09T11:08:33.250Z,2.58
2023-05-09T11:09:39.055Z,2.70
2023-05-09T11:10:44.207Z,4.15
2023-05-09T11:11:54.505Z,2.63
2023-05-09T11:13:01.078Z,2.65
2023-05-09T11:14:04.160Z,3.08
2023-05-09T11:15:08.098Z,2.22
2023-05-09T11:16:12.088Z,3.28
2023-05-09T11:17:23.050Z,2.60
2023-05-09T11:18:25.304Z,3.08
2023-05-09T11:19:47.655Z,2.55
2023-05-09T11:20:51.395Z,2.35
2023-05-09T11:22:12.439Z,1.92
2023-05-09T11:23:19.024Z,2.17
2023-05-09T11:24:23.154Z,2.40
2023-05-09T11:25:29.762Z,2.30
2023-05-09T11:26:32.890Z,2.40
2023-05-09T11:27:48.024Z,2.20
2023-05-09T11:28:54.409Z,2.83
2023-05-09T11:29:59.184Z,2.67
2023-05-09T11:31:12.070Z,3.17
2023-05-09T11:32:15.884Z,2.33
2023-05-09T11:33:28.651Z,2.58
2023-05-09T11:34:30.665Z,2.97
2023-05-09T11:35:36.878Z,2.15
2023-05-09T11:36:48.081Z,2.13
2023-05-09T11:38:09.419Z,2.55
2023-05-09T11:39:11.867Z,2.97
2023-05-09T11:40:17.282Z,2.30
2023-05-09T11:41:19.630Z,2.33
2023-05-09T11:42:24.323Z,1.92
2023-05-09T11:43:26.614Z,2.30
2023-05-09T11:44:30.929Z,2.33
2023-05-09T11:45:33.922Z,3.88
2023-05-09T11:46:36.976Z,2.30
2023-05-09T11:47:39.559Z,2.85
2023-05-09T11:48:44.218Z,4.00
2023-05-09T11:49:46.110Z,2.72
2023-05-09T11:50:49.602Z,3.45
2023-05-09T11:51:51.545Z,2.40
2023-05-09T11:52:55.858Z,3.10
2023-05-09T11:53:57.731Z,2.38
2023-05-09T11:54:59.706Z,2.30
2023-05-09T11:56:06.292Z,2.28
2023-05-09T11:57:08.517Z,2.33
2023-05-09T11:58:10.597Z,2.00
2023-05-09T11:59:14.724Z,2.67
2023-05-09T12:00:23.468Z,2.70
2023-05-09T12:01:25.675Z,2.20
2023-05-09T12:02:28.535Z,1.90
2023-05-09T12:03:30.961Z,2.60
2023-05-09T12:04:34.294Z,2.00
2023-05-09T12:05:39.556Z,2.05
2023-05-09T12:06:47.432Z,2.38
2023-05-09T12:07:50.675Z,2.45
2023-05-09T12:08:55.868Z,2.08
2023-05-09T12:09:57.816Z,2.08
2023-05-09T12:11:09.525Z,1.95
2023-05-09T12:12:14.845Z,2.03
2023-05-09T12:13:18.006Z,2.10
2023-05-09T12:14:34.804Z,1.77
2023-05-09T12:15:38.042Z,1.83
2023-05-09T12:16:46.749Z,2.10
2023-05-09T12:18:02.496Z,1.90
2023-05-09T12:19:05.566Z,2.10
2023-05-09T12:20:09.441Z,2.13
2023-05-09T12:21:12.172Z,1.95
2023-05-09T12:22:14.231Z,1.73
2023-05-09T12:23:17.037Z,2.00
2023-05-09T12:24:22.130Z,1.77
2023-05-09T12:25:23.981Z,1.75
2023-05-09T12:26:27.061Z,1.92
2023-05-09T12:27:29.909Z,2.00
2023-05-09T12:28:32.297Z,2.58
2023-05-09T12:29:34.988Z,2.38
2023-05-09T12:30:37.289Z,2.10
2023-05-09T12:31:39.583Z,2.00
2023-05-09T12:32:42.776Z,1.95
2023-05-09T12:33:44.848Z,1.77
2023-05-09T12:34:48.500Z,1.90
2023-05-09T12:36:13.870Z,2.00
2023-05-09T12:37:18.772Z,1.70
2023-05-09T12:38:24.512Z,2.03
2023-05-09T12:39:26.751Z,2.03
2023-05-09T12:40:28.575Z,2.15
2023-05-09T12:41:39.254Z,1.55
2023-05-09T12:42:46.478Z,1.90
2023-05-09T12:43:51.027Z,1.85
2023-05-09T12:44:53.670Z,1.70
2023-05-09T12:45:55.553Z,2.20
2023-05-09T12:47:04.913Z,2.40
2023-05-09T12:48:09.262Z,1.67
2023-05-09T12:49:22.066Z,2.20
2023-05-09T12:50:35.862Z,2.03
2023-05-09T12:51:38.114Z,1.83
2023-05-09T12:52:58.481Z,2.25
2023-05-09T12:54:05.099Z,4.07
2023-05-09T12:55:09.709Z,2.05
2023-05-09T12:56:19.016Z,1.88
2023-05-09T12:57:29.387Z,2.45
2023-05-09T12:58:34.086Z,3.72
2023-05-09T12:59:35.947Z,2.00
2023-05-09T13:00:46.069Z,1.80
2023-05-09T13:01:56.750Z,1.88
2023-05-09T13:02:59.396Z,4.30
2023-05-09T13:04:07.473Z,1.60
2023-05-09T13:05:16.001Z,1.75
2023-05-09T13:06:18.240Z,1.33
2023-05-09T13:07:20.016Z,2.10
2023-05-09T13:08:22.186Z,1.88
2023-05-09T13:09:26.309Z,1.73
2023-05-09T13:10:30.877Z,1.73
2023-05-09T13:11:33.122Z,1.77
2023-05-09T13:12:34.947Z,1.85
2023-05-09T13:13:37.791Z,1.65
2023-05-09T13:14:40.619Z,1.88
2023-05-09T13:15:44.321Z,1.90
2023-05-09T13:16:46.506Z,1.92
2023-05-09T13:17:51.388Z,2.35
2023-05-09T13:18:53.336Z,2.22
2023-05-09T13:19:55.467Z,1.65
2023-05-09T13:20:57.423Z,2.22
2023-05-09T13:21:59.316Z,2.03
2023-05-09T13:23:01.651Z,2.15
2023-05-09T13:24:07.090Z,2.00
2023-05-09T13:25:09.640Z,1.95
2023-05-09T13:26:11.642Z,2.10
2023-05-09T13:27:13.554Z,2.25
2023-05-09T13:28:15.459Z,2.20
2023-05-09T13:29:17.444Z,2.10
2023-05-09T13:30:19.781Z,2.00
2023-05-09T13:31:22.743Z,2.20
2023-05-09T13:32:27.764Z,1.80
2023-05-09T13:33:29.933Z,1.90
2023-05-09T13:34:31.865Z,2.10
2023-05-09T13:35:33.781Z,2.10
2023-05-09T13:36:35.662Z,1.90
2023-05-09T13:37:37.576Z,1.80
2023-05-09T13:38:40.860Z,1.90
2023-05-09T13:39:43.043Z,2.20
2023-05-09T13:40:44.843Z,2.13
2023-05-09T13:41:48.552Z,2.03
2023-05-09T13:42:50.505Z,2.20
2023-05-09T13:43:52.394Z,2.15
2023-05-09T13:44:54.384Z,2.30
2023-05-09T13:45:56.272Z,2.00
2023-05-09T13:47:00.153Z,2.13
2023-05-09T13:48:02.074Z,1.73
2023-05-09T13:49:04.427Z,2.20
2023-05-09T13:50:08.654Z,2.20
2023-05-09T13:51:12.101Z,2.20
2023-05-09T13:52:16.110Z,2.30
2023-05-09T13:53:18.024Z,2.47
2023-05-09T13:54:21.570Z,2.10
2023-05-09T13:55:24.278Z,4.35
2023-05-09T13:56:26.224Z,2.40
2023-05-09T13:57:28.040Z,1.85
2023-05-09T13:58:30.171Z,2.00
2023-05-09T13:59:33.475Z,2.45
2023-05-09T14:00:35.568Z,2.38
2023-05-09T14:01:37.492Z,2.10
2023-05-09T14:02:39.713Z,1.95
2023-05-09T14:03:41.765Z,2.15
2023-05-09T14:04:43.655Z,2.20
2023-05-09T14:05:45.742Z,2.10
2023-05-09T14:06:48.329Z,2.15
2023-05-09T14:07:50.217Z,1.90
2023-05-09T14:08:52.150Z,2.22
2023-05-09T14:09:58.811Z,2.25
2023-05-09T14:11:10.326Z,2.25
2023-05-09T14:12:15.316Z,2.20
2023-05-09T14:13:17.774Z,2.15
2023-05-09T14:14:25.005Z,1.88
2023-05-09T14:15:26.919Z,1.70